Terminal Aerodrome Forecast
Issued by NWS Memphis, TN

Home | Current Version | Previous Version | Text Only | Print | Product List | Glossary On
Versions: 1 2 3 4 5 6 7 8 9 10 11 12 13 14 15 16
239
FTUS44 KMEG 232333
TAFMKL
TAF
KMKL 232333Z 2400/2424 17011KT P6SM FEW045 FEW250
     FM240800 19011G18KT P6SM FEW035 FEW250 WS020/20045KT
     FM241400 20014G22KT P6SM SCT030 SCT250
     FM242100 23010G16KT P6SM VCSH BKN045=

USA.gov is the U.S. government's official web portal to all federal, state and local government web resources and services.